Black Pearl — FAC3436 — position and weather

sailwx.info

Track history (hours):
 
Tides and Currents Weather Stations Pressure Air Temp Water Temp Dewpoint Dewpoint Depression Visibility Wind Speed Wind Dir Waves Ship Positions

Black Pearl

Last reported at 2017-Aug-21 14:10 UTC. Time now 2017-Sep-23 02:28 UTC.
Position N 47°30' W 002°31'.
Warning: this ship's position is 32 days out of date.

Length 9 m.

Type: Sailing vessel. MMSI: 227275650.

Date/timePositionNaut miles runAvg speedWind from/ knotsBaromVisibWave heightAir tempDewpointWater temp
2017-Aug-21 14:10N 47°30' W 002°31'1 4.8
2017-Aug-21 13:59N 47°29' W 002°32'3 4.7
2017-Aug-21 13:17N 47°28' W 002°37'11 3.5
2017-Aug-21 10:15N 47°30' W 002°52'0 1.8
2017-Aug-21 10:01N 47°30' W 002°53'1 2.3
2017-Aug-21 09:29N 47°31' W 002°54'2 5.2
2017-Aug-21 09:00N 47°34' W 002°55'4 7.4
2017-Aug-21 08:30N 47°36' W 002°51'2 4.1
2017-Aug-21 08:00N 47°35' W 002°49'1 0.1
2017-Aug-20 16:20N 47°35' W 002°48'0 0.0
2017-Aug-20 15:47N 47°35' W 002°48'0 0.0
2017-Aug-20 15:17N 47°35' W 002°48'0 1.0
2017-Aug-20 14:59N 47°35' W 002°47'1 2.7
2017-Aug-20 14:28N 47°34' W 002°47'2 5.0
2017-Aug-20 13:59N 47°33' W 002°50'2 4.4
2017-Aug-20 13:29N 47°34' W 002°53'2 4.4
2017-Aug-20 13:00N 47°35' W 002°56'2 3.9
2017-Aug-20 12:27N 47°37' W 002°57'1 0.9
2017-Aug-20 11:09N 47°38' W 002°58'0 3.3
2017-Aug-20 11:00N 47°38' W 002°58'1 1.7
2017-Aug-20 10:20N 47°39' W 002°59'0 0.0
2017-Aug-20 09:17N 47°39' W 002°59'1 0.0
2017-Aug-19 12:20N 47°39' W 002°58'1 1.9
2017-Aug-19 12:00N 47°38' W 002°58'3 4.6
2017-Aug-19 11:22N 47°35' W 002°57'2 5.8
2017-Aug-19 11:00N 47°33' W 002°55'3 5.5
2017-Aug-19 10:30N 47°31' W 002°58'2 4.8
2017-Aug-19 10:00N 47°30' W 003°01'3 5.4
2017-Aug-19 09:30N 47°28' W 003°04'3 6.1
2017-Aug-19 09:00N 47°27' W 003°08'3 5.6
2017-Aug-19 08:28N 47°29' W 003°11'3 5.8
2017-Aug-19 07:55N 47°32' W 003°14'2 5.2
2017-Aug-19 07:30N 47°33' W 003°16'2 4.9
2017-Aug-19 07:00N 47°35' W 003°18'3 5.1
2017-Aug-19 06:30N 47°37' W 003°21'3 5.8
2017-Aug-19 06:00N 47°40' W 003°23'2 4.9
2017-Aug-19 05:30N 47°41' W 003°26'1 1.3
2017-Aug-19 04:59N 47°42' W 003°26'0 0.0
2017-Aug-18 15:46N 47°42' W 003°26'0 0.0
2017-Aug-18 15:30N 47°42' W 003°26'3 5.1
2017-Aug-18 14:59N 47°39' W 003°25'3 5.3
2017-Aug-18 14:28N 47°37' W 003°26'1 0.5
2017-Aug-18 12:31N 47°38' W 003°26'0 0.0
2017-Aug-18 11:52N 47°38' W 003°26'1 3.0
2017-Aug-18 11:30N 47°37' W 003°27'3 4.0
2017-Aug-18 10:37N 47°39' W 003°31'1 5.2
2017-Aug-18 10:30N 47°40' W 003°30'2 3.5
2017-Aug-18 10:00N 47°40' W 003°28'2 4.4
2017-Aug-18 09:29N 47°42' W 003°26'0 0.1
2017-Aug-18 08:42N 47°42' W 003°26'0 0.0
2017-Aug-18 08:30N 47°42' W 003°26'0 0.0
2017-Aug-17 13:55N 47°42' W 003°26'1 2.5
2017-Aug-17 13:30N 47°41' W 003°25'3 5.2
2017-Aug-17 13:00N 47°39' W 003°23'3 5.1
2017-Aug-17 12:30N 47°37' W 003°22'3 4.9
2017-Aug-17 11:58N 47°34' W 003°20'2 4.5
2017-Aug-17 11:30N 47°32' W 003°19'2 4.9
2017-Aug-17 11:00N 47°30' W 003°18'2 4.7
2017-Aug-17 10:30N 47°28' W 003°16'41 1.7
2017-Aug-16 10:58N 46°57' W 002°36'  
Track history (hours):
 
Tides and Currents Weather Stations Pressure Air Temp Water Temp Dewpoint Dewpoint Depression Visibility Wind Speed Wind Dir Waves Ship Positions

Black Pearl

Last reported at 2017-Aug-21 14:10 UTC. Time now 2017-Sep-23 02:28 UTC.
Position N 47°30' W 002°31'.
Warning: this ship's position is 32 days out of date.

Length 9 m.

Type: Sailing vessel. MMSI: 227275650.

Date/timePositionNaut miles runAvg speedWind from/ knotsBaromVisibWave heightAir tempDewpointWater temp
2017-Aug-21 14:10N 47°30' W 002°31'1 4.8
2017-Aug-21 13:59N 47°29' W 002°32'3 4.7
2017-Aug-21 13:17N 47°28' W 002°37'11 3.5
2017-Aug-21 10:15N 47°30' W 002°52'0 1.8
2017-Aug-21 10:01N 47°30' W 002°53'1 2.3
2017-Aug-21 09:29N 47°31' W 002°54'2 5.2
2017-Aug-21 09:00N 47°34' W 002°55'4 7.4
2017-Aug-21 08:30N 47°36' W 002°51'2 4.1
2017-Aug-21 08:00N 47°35' W 002°49'1 0.1
2017-Aug-20 16:20N 47°35' W 002°48'0 0.0
2017-Aug-20 15:47N 47°35' W 002°48'0 0.0
2017-Aug-20 15:17N 47°35' W 002°48'0 1.0
2017-Aug-20 14:59N 47°35' W 002°47'1 2.7
2017-Aug-20 14:28N 47°34' W 002°47'2 5.0
2017-Aug-20 13:59N 47°33' W 002°50'2 4.4
2017-Aug-20 13:29N 47°34' W 002°53'2 4.4
2017-Aug-20 13:00N 47°35' W 002°56'2 3.9
2017-Aug-20 12:27N 47°37' W 002°57'1 0.9
2017-Aug-20 11:09N 47°38' W 002°58'0 3.3
2017-Aug-20 11:00N 47°38' W 002°58'1 1.7
2017-Aug-20 10:20N 47°39' W 002°59'0 0.0
2017-Aug-20 09:17N 47°39' W 002°59'1 0.0
2017-Aug-19 12:20N 47°39' W 002°58'1 1.9
2017-Aug-19 12:00N 47°38' W 002°58'3 4.6
2017-Aug-19 11:22N 47°35' W 002°57'2 5.8
2017-Aug-19 11:00N 47°33' W 002°55'3 5.5
2017-Aug-19 10:30N 47°31' W 002°58'2 4.8
2017-Aug-19 10:00N 47°30' W 003°01'3 5.4
2017-Aug-19 09:30N 47°28' W 003°04'3 6.1
2017-Aug-19 09:00N 47°27' W 003°08'3 5.6
2017-Aug-19 08:28N 47°29' W 003°11'3 5.8
2017-Aug-19 07:55N 47°32' W 003°14'2 5.2
2017-Aug-19 07:30N 47°33' W 003°16'2 4.9
2017-Aug-19 07:00N 47°35' W 003°18'3 5.1
2017-Aug-19 06:30N 47°37' W 003°21'3 5.8
2017-Aug-19 06:00N 47°40' W 003°23'2 4.9
2017-Aug-19 05:30N 47°41' W 003°26'1 1.3
2017-Aug-19 04:59N 47°42' W 003°26'0 0.0
2017-Aug-18 15:46N 47°42' W 003°26'0 0.0
2017-Aug-18 15:30N 47°42' W 003°26'3 5.1
2017-Aug-18 14:59N 47°39' W 003°25'3 5.3
2017-Aug-18 14:28N 47°37' W 003°26'1 0.5
2017-Aug-18 12:31N 47°38' W 003°26'0 0.0
2017-Aug-18 11:52N 47°38' W 003°26'1 3.0
2017-Aug-18 11:30N 47°37' W 003°27'3 4.0
2017-Aug-18 10:37N 47°39' W 003°31'1 5.2
2017-Aug-18 10:30N 47°40' W 003°30'2 3.5
2017-Aug-18 10:00N 47°40' W 003°28'2 4.4
2017-Aug-18 09:29N 47°42' W 003°26'0 0.1
2017-Aug-18 08:42N 47°42' W 003°26'0 0.0
2017-Aug-18 08:30N 47°42' W 003°26'0 0.0
2017-Aug-17 13:55N 47°42' W 003°26'1 2.5
2017-Aug-17 13:30N 47°41' W 003°25'3 5.2
2017-Aug-17 13:00N 47°39' W 003°23'3 5.1
2017-Aug-17 12:30N 47°37' W 003°22'3 4.9
2017-Aug-17 11:58N 47°34' W 003°20'2 4.5
2017-Aug-17 11:30N 47°32' W 003°19'2 4.9
2017-Aug-17 11:00N 47°30' W 003°18'2 4.7
2017-Aug-17 10:30N 47°28' W 003°16'41 1.7
2017-Aug-16 10:58N 46°57' W 002°36'  

Dump ship's entire track history